Time;durP1;ratioP1;P1;durP2;ratioP2;P2;SDS_P1;SDS_P2;PMS_P1;PMS_P2;Temp;Humidity;BMP_temperature;BMP_pressure;BME280_temperature;BME280_humidity;BME280_pressure;Samples;Min_cycle;Max_cycle;Signal;HPM_P1;HPM_P2
2022/03/23 00:01:01;;;;;;;11.48;4.97;;;;;;;5.70;53.28;100960.22;5051638;28;20082;-36
2022/03/23 00:03:27;;;;;;;11.18;5.07;;;;;;;5.47;55.05;100947.34;5051633;28;20040;-36
2022/03/23 00:05:53;;;;;;;12.43;5.35;;;;;;;5.60;55.90;100943.56;5051387;28;20068;-35
2022/03/23 00:08:20;;;;;;;10.23;4.75;;;;;;;5.41;55.38;100937.34;5051469;28;20064;-36
2022/03/23 00:10:45;;;;;;;10.77;5.03;;;;;;;5.45;54.92;100944.00;5051751;28;20107;-36
2022/03/23 00:13:10;;;;;;;13.00;5.13;;;;;;;5.17;56.34;100940.41;5051419;28;20454;-36
2022/03/23 00:15:36;;;;;;;11.32;5.25;;;;;;;5.24;55.57;100927.50;5051466;28;20025;-36
2022/03/23 00:18:02;;;;;;;11.07;4.97;;;;;;;5.97;52.13;100942.81;5051448;28;20413;-36
2022/03/23 00:20:28;;;;;;;11.32;4.90;;;;;;;5.75;53.56;100943.94;5051270;28;20076;-36
2022/03/23 00:22:53;;;;;;;12.27;5.22;;;;;;;5.34;55.42;100940.69;5051206;28;20103;-36
2022/03/23 00:25:19;;;;;;;11.82;5.00;;;;;;;5.14;55.18;100940.69;5051492;28;20025;-36
2022/03/23 00:27:44;;;;;;;12.95;5.35;;;;;;;5.07;55.20;100943.03;5050239;28;20029;-36
2022/03/23 00:30:10;;;;;;;10.88;5.00;;;;;;;5.02;56.56;100963.72;5050364;28;20051;-37
2022/03/23 00:32:36;;;;;;;15.80;5.25;;;;;;;5.04;55.88;100951.22;5051241;28;20021;-37
2022/03/23 00:35:02;;;;;;;11.82;5.22;;;;;;;4.85;55.39;100951.19;5053393;28;20017;-36
2022/03/23 00:37:29;;;;;;;13.13;4.80;;;;;;;4.74;55.92;100920.53;5055432;28;20405;-36
2022/03/23 00:39:54;;;;;;;10.60;4.38;;;;;;;4.99;55.98;100940.25;5055381;28;20429;-36
2022/03/23 00:42:20;;;;;;;14.43;5.07;;;;;;;5.06;54.73;100946.66;5055308;28;20717;-36
2022/03/23 00:44:45;;;;;;;8.88;4.75;;;;;;;4.99;55.73;100928.84;5055360;28;20021;-36
2022/03/23 00:47:11;;;;;;;12.50;5.10;;;;;;;4.93;54.87;100938.19;5055367;28;20021;-36
2022/03/23 00:49:37;;;;;;;9.80;4.80;;;;;;;4.90;54.80;100933.16;5055196;28;20104;-36
2022/03/23 00:52:05;;;;;;;10.10;4.70;;;;;;;4.44;54.91;100930.16;5055389;28;20052;-36
2022/03/23 00:54:34;;;;;;;10.10;4.40;;;;;;;4.64;55.23;100932.84;5055522;28;20032;-36
2022/03/23 00:57:09;;;;;;;16.35;4.85;;;;;;;4.83;55.45;100930.22;5055168;28;20128;-36
2022/03/23 00:59:34;;;;;;;12.18;4.68;;;;;;;5.06;54.75;100924.69;5054657;28;20032;-37
2022/03/23 01:02:00;;;;;;;8.73;4.72;;;;;;;5.04;55.16;100924.84;5055075;28;20103;-37
2022/03/23 01:04:26;;;;;;;14.75;5.20;;;;;;;5.12;54.85;100931.22;5054679;28;20104;-37
2022/03/23 01:06:52;;;;;;;8.85;4.55;;;;;;;4.89;54.56;100921.78;5054714;28;20028;-37
2022/03/23 01:09:22;;;;;;;11.75;5.03;;;;;;;4.84;54.78;100929.28;5054811;28;20394;-37
2022/03/23 01:11:48;;;;;;;;;;;;;;;4.84;55.58;100928.44;5055328;28;20032;-37
2022/03/23 01:14:13;;;;;;;10.70;5.10;;;;;;;5.03;54.46;100928.47;5054812;28;19908;-37
2022/03/23 01:16:39;;;;;;;10.45;5.22;;;;;;;5.99;51.73;100930.28;5054650;28;20443;-37
2022/03/23 01:19:04;;;;;;;11.70;5.28;;;;;;;5.39;53.44;100925.25;5055044;28;20372;-36
2022/03/23 01:21:29;;;;;;;10.80;5.22;;;;;;;4.98;54.21;100925.41;5054695;28;20488;-37
2022/03/23 01:23:55;;;;;;;12.52;5.30;;;;;;;4.64;56.16;100927.56;5054470;28;20079;-36
2022/03/23 01:26:20;;;;;;;12.68;5.55;;;;;;;4.57;54.31;100922.03;5054630;28;20025;-37
2022/03/23 01:28:46;;;;;;;12.75;5.68;;;;;;;4.94;54.51;100918.72;5054285;28;20036;-36
2022/03/23 01:31:12;;;;;;;10.93;5.45;;;;;;;5.39;52.52;100917.34;5054564;28;20027;-36
2022/03/23 01:33:38;;;;;;;13.35;5.40;;;;;;;5.02;54.16;100920.69;5054221;28;20059;-36
2022/03/23 01:36:03;;;;;;;14.65;6.00;;;;;;;4.79;54.05;100915.66;5054423;28;20098;-36
2022/03/23 01:38:29;;;;;;;15.38;6.35;;;;;;;4.61;56.18;100914.69;5054254;28;20025;-36
2022/03/23 01:40:55;;;;;;;19.30;6.18;;;;;;;4.61;55.85;100926.06;5054147;28;20507;-36
2022/03/23 01:43:20;;;;;;;13.77;6.13;;;;;;;4.56;56.51;100928.25;5054050;28;20031;-36
2022/03/23 01:45:46;;;;;;;14.25;6.43;;;;;;;4.35;56.08;100925.69;5052545;28;20021;-36
2022/03/23 01:48:11;;;;;;;18.15;7.20;;;;;;;4.42;56.77;100933.91;5053653;28;20061;-36
2022/03/23 01:50:37;;;;;;;12.48;6.70;;;;;;;4.30;56.93;100926.13;5053997;28;20070;-36
2022/03/23 01:53:03;;;;;;;17.88;7.25;;;;;;;4.24;57.04;100936.34;5053953;28;20104;-36
2022/03/23 01:55:28;;;;;;;14.70;6.97;;;;;;;4.28;57.86;100935.09;5053938;28;20058;-36
2022/03/23 01:57:54;;;;;;;18.13;6.88;;;;;;;4.37;56.72;100928.22;5053816;28;20036;-36
2022/03/23 02:00:20;;;;;;;14.85;7.10;;;;;;;3.98;56.36;100931.53;5053932;28;20025;-36
2022/03/23 02:02:46;;;;;;;15.13;6.97;;;;;;;3.96;57.82;100932.59;5053828;28;20025;-36
2022/03/23 02:05:13;;;;;;;18.17;7.35;;;;;;;4.07;56.89;100930.75;5053524;28;20223;-36
2022/03/23 02:07:39;;;;;;;16.63;7.40;;;;;;;4.22;57.73;100931.19;5053490;28;20025;-37
2022/03/23 02:10:08;;;;;;;14.48;7.30;;;;;;;4.29;56.62;100936.78;5053819;28;20031;-37
2022/03/23 02:12:33;;;;;;;19.58;7.82;;;;;;;4.19;56.85;100930.63;5053580;28;20017;-37
2022/03/23 02:15:08;;;;;;;14.68;7.35;;;;;;;4.10;59.09;100927.81;5053455;28;20175;-36
2022/03/23 02:17:34;;;;;;;17.23;7.93;;;;;;;4.01;57.15;100931.25;5053666;28;20059;-37
2022/03/23 02:19:59;;;;;;;16.88;7.47;;;;;;;4.17;57.07;100933.41;5054063;28;20041;-36
2022/03/23 02:22:25;;;;;;;14.38;7.05;;;;;;;4.04;58.74;100932.81;5053654;28;20475;-36
2022/03/23 02:24:50;;;;;;;15.48;7.22;;;;;;;4.07;58.05;100937.78;5053326;28;20401;-36
2022/03/23 02:27:16;;;;;;;14.75;6.85;;;;;;;4.12;58.44;100932.97;5052010;28;20560;-36
2022/03/23 02:29:43;;;;;;;15.02;6.78;;;;;;;4.17;57.64;100928.16;5053279;28;20077;-36
2022/03/23 02:32:09;;;;;;;18.17;7.10;;;;;;;4.05;58.17;100935.28;5053146;28;20096;-36
2022/03/23 02:34:35;;;;;;;16.98;7.32;;;;;;;4.13;59.13;100937.25;5053190;28;20110;-36
2022/03/23 02:37:00;;;;;;;15.02;6.68;;;;;;;4.05;58.59;100948.47;5053253;28;20021;-36
2022/03/23 02:39:26;;;;;;;12.02;6.47;;;;;;;4.21;57.41;100929.53;5053003;28;20029;-37
2022/03/23 02:41:56;;;;;;;16.13;7.15;;;;;;;4.19;56.85;100925.34;5053414;28;20096;-37
2022/03/23 02:44:22;;;;;;;15.73;7.18;;;;;;;4.24;57.70;100937.16;5053409;28;20027;-37
2022/03/23 02:46:47;;;;;;;15.10;6.80;;;;;;;4.19;59.22;100934.13;5052972;28;20041;-37
2022/03/23 02:49:16;;;;;;;16.10;6.88;;;;;;;4.14;58.17;100941.56;5053011;28;20028;-38
2022/03/23 02:51:42;;;;;;;15.40;6.67;;;;;;;4.19;57.54;100939.38;5052960;28;20025;-37
2022/03/23 03:03:22;;;;;;;16.05;6.00;;;;;;;4.34;58.67;100929.31;5052703;28;20475;-36
2022/03/23 03:05:47;;;;;;;15.40;6.60;;;;;;;4.16;59.33;100934.38;5052427;28;20087;-36
2022/03/23 03:10:56;;;;;;;14.10;4.72;;;;;;;4.36;54.53;100930.03;5052467;28;20024;-36
2022/03/23 03:13:22;;;;;;;9.75;5.20;;;;;;;4.31;56.91;100929.56;5052794;28;20013;-36
2022/03/23 03:15:47;;;;;;;14.98;5.75;;;;;;;4.32;57.14;100928.59;5052627;28;20086;-37
2022/03/23 03:18:13;;;;;;;16.85;5.30;;;;;;;4.35;56.44;100935.41;5052592;28;20013;-37
2022/03/23 03:20:38;;;;;;;15.85;6.22;;;;;;;4.19;57.39;100930.63;5052576;28;20473;-37
2022/03/23 03:23:03;;;;;;;12.68;5.60;;;;;;;4.29;58.05;100929.69;5052378;28;20453;-37
2022/03/23 03:25:29;;;;;;;12.40;5.35;;;;;;;4.38;57.15;100927.22;5052112;28;20029;-36
2022/03/23 03:27:54;;;;;;;12.80;5.65;;;;;;;4.18;56.46;100921.91;5052130;28;20477;-37
2022/03/23 03:30:20;;;;;;;11.35;4.90;;;;;;;4.01;56.68;100917.25;5051745;28;20021;-37
2022/03/23 03:32:46;;;;;;;11.93;5.25;;;;;;;4.13;54.79;100920.63;5052201;28;20059;-37
2022/03/23 03:35:13;;;;;;;12.18;6.30;;;;;;;3.82;57.56;100918.81;5051820;28;20477;-37
2022/03/23 03:37:39;;;;;;;10.80;5.60;;;;;;;3.82;58.14;100924.09;5052161;28;20405;-37
2022/03/23 03:40:07;;;;;;;8.27;3.97;;;;;;;4.11;53.23;100913.72;5052096;28;20594;-37
2022/03/23 03:42:33;;;;;;;16.65;6.20;;;;;;;4.32;56.78;100910.16;5051991;28;20021;-37
2022/03/23 03:45:02;;;;;;;14.38;6.20;;;;;;;4.15;57.98;100916.91;5051408;28;20032;-47
2022/03/23 03:47:27;;;;;;;10.50;6.20;;;;;;;4.10;58.56;100911.19;5051755;28;20033;-48
2022/03/23 03:49:53;;;;;;;20.38;6.93;;;;;;;4.15;58.84;100909.00;5051745;28;20036;-48
2022/03/23 03:52:18;;;;;;;15.50;6.95;;;;;;;4.09;58.51;100906.88;5051844;28;20096;-48
2022/03/23 03:54:45;;;;;;;19.45;8.30;;;;;;;4.10;58.09;100904.13;5051696;28;20033;-48
2022/03/23 03:57:11;;;;;;;17.73;8.35;;;;;;;4.00;57.09;100903.25;5051728;28;20024;-47
2022/03/23 03:59:37;;;;;;;15.38;7.78;;;;;;;3.87;57.49;100905.28;5051695;28;20020;-48
2022/03/23 04:02:03;;;;;;;19.30;8.77;;;;;;;3.78;58.47;100906.88;5051504;28;20021;-48
2022/03/23 04:04:29;;;;;;;17.05;7.65;;;;;;;3.67;60.87;100918.31;5051480;28;20159;-47
2022/03/23 04:06:54;;;;;;;21.25;7.70;;;;;;;3.58;59.25;100920.91;5051507;28;20108;-48
2022/03/23 04:09:19;;;;;;;19.35;7.40;;;;;;;3.63;60.92;100916.09;5050939;28;20029;-47
2022/03/23 04:11:45;;;;;;;18.63;7.80;;;;;;;3.70;60.95;100914.63;5051517;28;20021;-46
2022/03/23 04:14:10;;;;;;;14.02;7.07;;;;;;;3.64;59.43;100896.72;5051305;28;20027;-48
2022/03/23 04:16:36;;;;;;;16.30;6.32;;;;;;;3.68;59.63;100924.44;5051958;28;20017;-47
2022/03/23 04:19:03;;;;;;;33.15;15.38;;;;;;;3.59;59.89;100919.94;5051322;28;20032;-50
2022/03/23 04:21:28;;;;;;;25.52;10.60;;;;;;;3.59;60.50;100915.50;5055349;28;20037;-46
2022/03/23 04:23:54;;;;;;;32.20;15.07;;;;;;;3.99;62.51;100932.34;5051446;28;20025;-47
2022/03/23 04:26:19;;;;;;;46.75;21.80;;;;;;;3.86;60.15;100922.84;5050922;28;20492;-48
2022/03/23 04:28:45;;;;;;;20.48;8.65;;;;;;;3.93;59.08;100925.81;5050741;28;20071;-49
2022/03/23 04:31:10;;;;;;;12.40;6.75;;;;;;;4.02;57.79;100934.75;5050729;28;20116;-51
2022/03/23 04:33:35;;;;;;;13.40;6.35;;;;;;;4.02;59.47;100932.09;5050871;28;20052;-47
2022/03/23 04:36:01;;;;;;;11.82;5.90;;;;;;;4.38;58.22;100927.22;5050321;28;20017;-48
2022/03/23 04:38:26;;;;;;;14.57;6.38;;;;;;;4.45;56.18;100937.09;5050574;28;20370;-48
2022/03/23 04:40:53;;;;;;;13.27;5.60;;;;;;;4.38;57.10;100935.13;5051108;28;20020;-51
2022/03/23 04:43:19;;;;;;;12.52;5.38;;;;;;;4.43;56.71;100927.66;5049991;28;20025;-49
2022/03/23 04:45:44;;;;;;;14.10;5.55;;;;;;;4.54;57.07;100932.00;5049483;28;20032;-51
2022/03/23 04:48:10;;;;;;;15.23;6.82;;;;;;;4.79;56.51;100928.03;5049296;28;20060;-48
2022/03/23 04:50:35;;;;;;;12.75;5.07;;;;;;;5.68;53.95;100930.47;5049685;28;20021;-49
2022/03/23 04:53:01;;;;;;;9.52;5.05;;;;;;;5.40;53.02;100925.09;5050236;28;20211;-48
2022/03/23 04:55:26;;;;;;;15.80;5.45;;;;;;;5.29;53.20;100912.91;5049986;28;20404;-49
2022/03/23 04:57:52;;;;;;;11.57;4.93;;;;;;;5.28;54.63;100929.69;5050476;28;20386;-48
2022/03/23 05:00:20;;;;;;;10.40;5.03;;;;;;;5.25;54.23;100934.41;5050971;28;20029;-49
2022/03/23 05:02:46;;;;;;;12.23;5.53;;;;;;;5.48;51.94;100927.03;5050944;28;20056;-47
2022/03/23 05:05:12;;;;;;;11.10;5.63;;;;;;;5.42;52.58;100931.06;5050735;28;20056;-51
2022/03/23 05:07:39;;;;;;;14.88;5.82;;;;;;;6.34;49.89;100937.53;5049940;28;20052;-50
2022/03/23 05:10:05;;;;;;;12.25;5.78;;;;;;;6.25;49.84;100936.56;5050847;28;20032;-50
2022/03/23 05:12:31;;;;;;;12.38;5.85;;;;;;;6.15;50.74;100935.78;5050675;28;20107;-47
2022/03/23 05:14:56;;;;;;;11.68;5.78;;;;;;;6.35;47.83;100935.69;5051265;28;20212;-49
2022/03/23 05:17:22;;;;;;;12.65;5.57;;;;;;;6.15;50.01;100937.59;5050524;28;20048;-50
2022/03/23 05:19:48;;;;;;;13.10;5.40;;;;;;;6.25;48.07;100939.22;5037613;28;20025;-47
2022/03/23 05:22:13;;;;;;;11.48;5.35;;;;;;;6.97;46.42;100942.00;5044283;28;20025;-48
2022/03/23 05:24:42;;;;;;;10.05;5.85;;;;;;;7.51;44.43;100936.66;5035148;28;20025;-49
2022/03/23 05:27:08;;;;;;;13.32;5.28;;;;;;;7.13;44.94;100946.63;5033386;28;20025;-49
2022/03/23 05:29:35;;;;;;;13.13;5.80;;;;;;;7.13;45.52;100946.63;5033901;28;20021;-49
2022/03/23 05:32:00;;;;;;;10.00;5.35;;;;;;;8.71;45.45;100952.72;5032307;28;20032;-49
2022/03/23 05:34:26;;;;;;;10.70;5.47;;;;;;;8.09;42.86;100945.81;5032364;28;20021;-48
2022/03/23 05:36:51;;;;;;;9.75;5.13;;;;;;;8.07;43.17;100947.78;5033134;28;20022;-47
2022/03/23 05:39:17;;;;;;;14.65;6.45;;;;;;;8.07;42.94;100947.78;5032003;28;20413;-51
2022/03/23 05:41:42;;;;;;;16.75;5.75;;;;;;;8.02;43.03;100950.09;5032401;28;20017;-48
2022/03/23 05:44:08;;;;;;;10.45;5.35;;;;;;;8.29;42.41;100958.84;5031430;28;20383;-49
2022/03/23 05:46:34;;;;;;;13.95;5.57;;;;;;;8.60;41.69;100952.03;5031475;28;20097;-48
2022/03/23 05:48:59;;;;;;;11.50;5.13;;;;;;;8.68;41.06;100932.66;5031661;28;20441;-52
2022/03/23 05:51:25;;;;;;;8.93;5.20;;;;;;;8.78;40.54;100959.06;5031059;28;20040;-48
2022/03/23 05:53:50;;;;;;;10.35;5.00;;;;;;;9.16;40.21;100962.09;5031557;28;20083;-50
2022/03/23 05:56:16;;;;;;;13.55;6.90;;;;;;;9.17;40.41;100959.25;5032254;28;20055;-50
2022/03/23 05:58:41;;;;;;;19.83;8.85;;;;;;;9.13;39.89;100957.94;5031912;28;20021;-47
2022/03/23 06:01:07;;;;;;;12.70;5.25;;;;;;;9.20;39.72;100964.25;5032395;28;20030;-49
2022/03/23 06:03:32;;;;;;;12.77;5.32;;;;;;;9.74;38.99;100949.63;5032512;28;20043;-47
2022/03/23 06:05:58;;;;;;;11.63;5.80;;;;;;;10.02;38.13;100959.88;5043378;28;20045;-49
2022/03/23 06:08:23;;;;;;;12.52;6.18;;;;;;;10.00;38.49;100961.91;5053092;28;20025;-49
2022/03/23 06:10:49;;;;;;;10.77;5.68;;;;;;;10.54;37.95;100960.22;5053010;28;20039;-51
2022/03/23 06:13:15;;;;;;;9.88;5.45;;;;;;;10.07;37.77;100962.84;5052847;28;20029;-48
2022/03/23 06:15:41;;;;;;;11.75;6.07;;;;;;;10.52;37.26;100953.41;5052586;28;20065;-48
2022/03/23 06:18:07;;;;;;;14.65;5.85;;;;;;;10.94;36.89;100966.31;5052640;28;20032;-48
2022/03/23 06:20:32;;;;;;;14.02;6.80;;;;;;;11.22;36.90;100960.50;5052674;28;20036;-48
2022/03/23 06:22:58;;;;;;;11.73;6.47;;;;;;;11.57;35.82;100954.72;5052299;28;20086;-51
2022/03/23 06:25:26;;;;;;;11.93;6.15;;;;;;;11.26;35.62;100958.31;5052053;28;20503;-51
2022/03/23 06:27:52;;;;;;;15.60;6.18;;;;;;;11.70;35.12;100961.06;5052409;28;20474;-48
2022/03/23 06:30:17;;;;;;;13.40;6.20;;;;;;;12.74;34.42;100962.94;5052354;28;20507;-48
2022/03/23 06:32:42;;;;;;;13.73;5.72;;;;;;;12.76;33.71;100954.75;5050185;28;20409;-48
2022/03/23 06:35:08;;;;;;;11.30;5.70;;;;;;;12.70;33.57;100950.97;5051884;28;20036;-50
2022/03/23 06:37:34;;;;;;;8.70;5.32;;;;;;;12.45;34.46;100956.63;5052215;28;20052;-50
2022/03/23 06:39:59;;;;;;;12.57;5.82;;;;;;;12.82;34.20;100956.66;5052404;28;20122;-48
2022/03/23 06:42:27;;;;;;;18.10;6.05;;;;;;;12.84;33.65;100957.28;5052475;28;20032;-48
2022/03/23 06:44:52;;;;;;;12.18;5.13;;;;;;;12.52;34.09;100956.72;5052167;28;20484;-51
2022/03/23 06:47:18;;;;;;;10.18;5.32;;;;;;;12.59;34.01;100951.47;5052481;28;20107;-49
2022/03/23 06:49:43;;;;;;;12.43;5.40;;;;;;;12.92;33.54;100957.16;5052110;28;20484;-51
2022/03/23 06:52:09;;;;;;;9.95;5.40;;;;;;;12.69;34.07;100954.66;5052225;28;20062;-47
2022/03/23 06:54:34;;;;;;;13.85;5.90;;;;;;;12.89;33.12;100957.56;5051954;28;20151;-53
2022/03/23 06:57:00;;;;;;;10.65;5.43;;;;;;;13.77;32.16;100943.97;5052072;28;20154;-48
2022/03/23 06:59:25;;;;;;;9.57;5.45;;;;;;;14.26;31.39;100951.88;5052064;28;20025;-51
2022/03/23 07:01:51;;;;;;;11.23;5.57;;;;;;;14.32;30.85;100960.13;5051050;28;20465;-50
2022/03/23 07:04:17;;;;;;;14.30;5.60;;;;;;;14.27;30.81;100950.03;5051772;28;20032;-51
2022/03/23 07:06:43;;;;;;;10.90;5.88;;;;;;;14.41;30.42;100941.03;5050959;28;20056;-49
2022/03/23 07:11:53;;;;;;;13.23;5.72;;;;;;;14.78;30.47;100949.63;5051356;28;20040;-51
2022/03/23 07:14:19;;;;;;;13.85;5.38;;;;;;;14.88;30.39;100946.56;5051325;28;20082;-48
2022/03/23 07:16:44;;;;;;;11.27;5.40;;;;;;;14.63;30.23;100944.44;5051548;28;20024;-52
2022/03/23 07:19:10;;;;;;;11.48;5.18;;;;;;;14.65;30.56;100952.28;5051331;28;20016;-49
2022/03/23 07:21:36;;;;;;;10.07;5.20;;;;;;;14.56;30.66;100953.44;5051110;28;20480;-49
2022/03/23 07:24:01;;;;;;;12.38;5.25;;;;;;;15.08;30.02;100960.03;5051107;28;20035;-51
2022/03/23 07:26:27;;;;;;;15.50;5.32;;;;;;;15.23;29.42;100944.59;5051159;28;20103;-49
2022/03/23 07:28:52;;;;;;;9.60;4.38;;;;;;;15.18;29.46;100951.59;5051155;28;20029;-49
2022/03/23 07:31:18;;;;;;;7.75;4.32;;;;;;;15.48;29.08;100941.28;5050889;28;20025;-51
2022/03/23 07:33:43;;;;;;;11.48;4.10;;;;;;;15.08;29.43;100946.63;5050904;28;20024;-49
2022/03/23 07:36:11;;;;;;;6.68;3.53;;;;;;;15.11;29.38;100945.38;5050806;28;20109;-52
2022/03/23 07:38:36;;;;;;;9.90;4.60;;;;;;;15.21;29.48;100951.16;5050712;28;20035;-48
2022/03/23 07:41:02;;;;;;;6.75;3.10;;;;;;;15.10;28.28;100944.56;5050517;28;20021;-51
2022/03/23 07:43:27;;;;;;;7.78;3.60;;;;;;;15.19;29.08;100942.50;5050035;28;20029;-50
2022/03/23 07:45:52;;;;;;;6.82;3.80;;;;;;;15.09;28.32;100939.41;5050164;28;20024;-50
2022/03/23 07:48:20;;;;;;;8.60;3.65;;;;;;;15.37;28.35;100936.53;5050216;28;20166;-52
2022/03/23 07:50:45;;;;;;;11.07;3.55;;;;;;;15.54;27.57;100936.97;5050560;28;20033;-48
2022/03/23 07:53:11;;;;;;;6.68;3.45;;;;;;;15.83;27.24;100925.78;5050812;28;20372;-51
2022/03/23 07:55:37;;;;;;;8.38;3.10;;;;;;;15.73;26.87;100935.28;5050838;28;20025;-50
2022/03/23 07:58:02;;;;;;;5.60;2.83;;;;;;;15.22;27.52;100923.31;5050464;28;20086;-49
2022/03/23 08:00:28;;;;;;;5.60;2.70;;;;;;;15.19;27.32;100915.69;5050298;28;20488;-52
2022/03/23 08:02:53;;;;;;;6.05;3.13;;;;;;;15.60;26.68;100922.72;5050506;28;20021;-52
2022/03/23 08:05:19;;;;;;;6.30;2.90;;;;;;;15.91;27.61;100911.31;5050180;28;20041;-51
2022/03/23 08:07:45;;;;;;;6.45;2.90;;;;;;;15.93;26.63;100911.13;5050339;28;20021;-49
2022/03/23 08:10:11;;;;;;;5.55;2.75;;;;;;;15.75;26.11;100919.84;5049848;28;20024;-50
2022/03/23 08:12:36;;;;;;;6.82;2.70;;;;;;;15.66;26.07;100910.31;5050415;28;20031;-52
2022/03/23 08:15:02;;;;;;;5.55;2.60;;;;;;;15.88;25.74;100898.34;5050464;28;20025;-51
2022/03/23 08:17:27;;;;;;;4.57;2.75;;;;;;;15.61;26.50;100911.78;5050248;28;20110;-49
2022/03/23 08:22:37;;;;;;;6.95;2.58;;;;;;;15.86;25.62;100916.50;5050089;28;20036;-49
2022/03/23 08:25:04;;;;;;;10.95;2.70;;;;;;;15.21;26.59;100909.09;5050170;28;20077;-50
2022/03/23 08:27:29;;;;;;;7.50;2.80;;;;;;;15.27;26.45;100909.28;5050254;28;20040;-48
2022/03/23 08:29:55;;;;;;;7.07;2.67;;;;;;;15.36;25.81;100911.56;5050234;28;20025;-49
2022/03/23 08:32:22;;;;;;;5.93;2.78;;;;;;;15.43;25.52;100895.47;5050196;28;20029;-50
2022/03/23 08:34:49;;;;;;;4.65;2.83;;;;;;;15.53;26.03;100903.91;5049880;28;20523;-49
2022/03/23 08:37:15;;;;;;;6.38;2.60;;;;;;;15.58;25.48;100904.13;5050277;28;20031;-52
2022/03/23 08:39:40;;;;;;;5.22;2.50;;;;;;;15.80;25.02;100898.53;5049746;28;20024;-48
2022/03/23 08:42:06;;;;;;;5.00;2.53;;;;;;;16.05;24.43;100895.19;5050428;28;20029;-49
2022/03/23 08:44:31;;;;;;;4.88;2.60;;;;;;;16.10;23.92;100895.38;5050038;28;20473;-51
2022/03/23 08:46:57;;;;;;;8.75;2.90;;;;;;;16.12;24.64;100904.84;5050241;28;20373;-49
2022/03/23 08:49:22;;;;;;;9.40;2.95;;;;;;;16.72;24.45;100901.91;5050013;28;20024;-50
2022/03/23 08:51:48;;;;;;;6.03;2.60;;;;;;;16.46;23.39;100897.50;5050034;28;20020;-49
2022/03/23 08:54:13;;;;;;;5.80;2.42;;;;;;;16.69;23.52;100898.81;5049779;28;20548;-49
2022/03/23 08:56:39;;;;;;;4.35;2.58;;;;;;;16.42;23.83;100894.41;5052297;28;20054;-50
2022/03/23 08:59:04;;;;;;;5.70;2.70;;;;;;;16.45;23.58;100893.16;5053610;28;20029;-49
2022/03/23 09:01:30;;;;;;;5.82;2.78;;;;;;;16.39;23.41;100889.47;5053464;28;20044;-52
2022/03/23 09:04:00;;;;;;;6.13;2.92;;;;;;;16.52;22.96;100883.19;5053650;28;20052;-50
2022/03/23 09:06:26;;;;;;;4.45;2.88;;;;;;;16.15;24.41;100880.28;5053704;28;20136;-49
2022/03/23 09:08:51;;;;;;;4.75;2.72;;;;;;;16.51;22.57;100891.50;5053335;28;20103;-49
2022/03/23 09:11:17;;;;;;;5.70;2.67;;;;;;;16.44;23.53;100885.31;5053629;28;20025;-50
2022/03/23 09:13:44;;;;;;;6.55;2.90;;;;;;;16.58;23.21;100885.03;5053962;28;20104;-49
2022/03/23 09:16:10;;;;;;;5.53;2.90;;;;;;;16.75;23.77;100879.97;5053314;28;20024;-49
2022/03/23 09:18:35;;;;;;;8.13;2.90;;;;;;;16.22;24.58;100877.53;5053782;28;20017;-48
2022/03/23 09:21:01;;;;;;;6.00;3.10;;;;;;;16.53;23.47;100878.66;5053495;28;20489;-49
2022/03/23 09:23:26;;;;;;;6.50;2.80;;;;;;;16.76;23.76;100876.25;5053699;28;20396;-50
2022/03/23 09:25:52;;;;;;;6.53;2.55;;;;;;;16.56;23.33;100870.16;5053239;28;20465;-49
2022/03/23 09:28:19;;;;;;;6.90;3.00;;;;;;;16.59;23.48;100869.72;5053542;28;20021;-51
2022/03/23 09:30:44;;;;;;;6.07;2.80;;;;;;;15.79;24.41;100860.16;5053523;28;20013;-49
2022/03/23 09:33:10;;;;;;;5.57;3.30;;;;;;;15.72;24.59;100853.94;5053528;28;20021;-49
2022/03/23 09:35:35;;;;;;;4.07;2.80;;;;;;;16.20;23.71;100861.66;5053419;28;20047;-51
2022/03/23 09:38:04;;;;;;;6.07;2.80;;;;;;;15.90;24.98;100863.25;5053445;28;20092;-48
2022/03/23 09:40:32;;;;;;;8.05;2.90;;;;;;;16.41;23.37;100852.47;5053139;28;20025;-50
2022/03/23 09:43:00;;;;;;;9.25;3.28;;;;;;;16.09;24.84;100851.59;5053234;28;20036;-49
2022/03/23 09:48:09;;;;;;;7.70;2.90;;;;;;;16.56;22.70;100852.19;5052908;28;20021;-48
2022/03/23 09:50:35;;;;;;;10.95;3.10;;;;;;;16.10;24.69;100857.78;5052956;28;20063;-49
2022/03/23 09:53:02;;;;;;;6.90;2.80;;;;;;;16.26;24.08;100845.72;5052682;28;20051;-48
2022/03/23 09:55:27;;;;;;;5.22;2.63;;;;;;;16.34;23.98;100849.00;5052742;28;20476;-49
2022/03/23 09:57:58;;;;;;;5.63;2.83;;;;;;;16.39;23.92;100846.50;5052772;28;20013;-50
2022/03/23 10:00:27;;;;;;;5.70;2.60;;;;;;;16.24;23.77;100851.34;5052802;28;20047;-50
2022/03/23 10:03:11;;;;;;;6.25;2.97;;;;;;;16.05;24.15;100833.41;5052819;28;20335;-52
2022/03/23 10:05:52;;;;;;;6.47;2.67;;;;;;;16.07;23.86;100834.03;5052430;28;20056;-49
2022/03/23 10:08:36;;;;;;;4.25;2.67;;;;;;;16.44;23.17;100840.47;5051474;28;20080;-53
2022/03/23 10:11:38;;;;;;;6.75;2.95;;;;;;;16.05;23.55;100834.28;5052872;28;20412;-50
2022/03/23 10:14:31;;;;;;;5.32;2.53;;;;;;;15.94;23.70;100835.75;5052346;28;20096;-52
2022/03/23 10:17:34;;;;;;;4.00;2.70;;;;;;;15.80;23.63;100828.75;5052437;28;20366;-52
2022/03/23 10:20:01;;;;;;;6.07;2.92;;;;;;;16.04;23.33;100821.88;5052598;28;20079;-48
2022/03/23 10:22:28;;;;;;;5.43;2.65;;;;;;;16.57;22.60;100812.69;5052267;28;20032;-51
2022/03/23 10:24:54;;;;;;;6.07;2.97;;;;;;;15.93;23.68;100817.16;5051917;28;20433;-49
2022/03/23 10:27:22;;;;;;;4.38;2.75;;;;;;;16.14;22.84;100810.66;5052234;28;20036;-50
2022/03/23 10:29:52;;;;;;;4.75;2.80;;;;;;;16.27;23.49;100809.78;5052200;28;20091;-48
2022/03/23 10:32:20;;;;;;;5.97;2.72;;;;;;;15.86;23.56;100805.63;5052058;28;20412;-50
2022/03/23 10:34:51;;;;;;;3.92;2.53;;;;;;;16.27;23.11;100807.91;5052490;28;20099;-49
2022/03/23 10:37:31;;;;;;;9.68;2.88;;;;;;;16.38;23.90;100790.28;5051980;28;20029;-51
2022/03/23 10:40:09;;;;;;;6.82;2.70;;;;;;;16.41;23.33;100773.72;5052384;28;20025;-49
2022/03/23 10:42:38;;;;;;;5.72;2.85;;;;;;;16.14;23.08;100790.00;5051819;28;20021;-50
2022/03/23 10:45:12;;;;;;;5.80;3.20;;;;;;;16.01;23.18;100784.69;5051791;28;20021;-51
2022/03/23 10:47:39;;;;;;;5.32;3.00;;;;;;;16.63;22.57;100782.25;5051535;28;20067;-51
2022/03/23 10:50:19;;;;;;;4.30;2.60;;;;;;;17.81;21.00;100774.31;5051781;28;20064;-51
2022/03/23 10:52:52;;;;;;;6.47;2.55;;;;;;;17.03;21.38;100779.28;5051871;28;20017;-53
2022/03/23 10:55:17;;;;;;;3.42;2.28;;;;;;;16.99;21.81;100772.69;5051886;28;20037;-50
2022/03/23 10:57:55;;;;;;;4.13;2.50;;;;;;;17.58;20.73;100767.75;5051957;28;20035;-49
2022/03/23 11:00:34;;;;;;;7.65;2.70;;;;;;;17.00;20.95;100755.50;5052238;28;20107;-51
2022/03/23 11:03:01;;;;;;;6.55;2.80;;;;;;;16.37;22.19;100759.09;5051558;28;20100;-52
2022/03/23 11:05:47;;;;;;;6.07;2.70;;;;;;;17.92;21.53;100762.81;5051167;28;20580;-52
2022/03/23 11:08:20;;;;;;;5.65;2.70;;;;;;;17.91;20.87;100750.38;5051206;28;20555;-48
2022/03/23 11:16:24;;;;;;;4.85;2.50;;;;;;;18.16;20.00;100747.56;5051612;28;20035;-48
2022/03/23 11:19:11;;;;;;;6.10;2.45;;;;;;;17.65;20.32;100743.44;5050899;28;20100;-51
2022/03/23 11:22:03;;;;;;;6.57;2.20;;;;;;;17.73;20.48;100732.38;5050837;28;20029;-49
2022/03/23 11:24:36;;;;;;;4.85;2.53;;;;;;;17.96;20.37;100737.88;5050963;28;20060;-48
2022/03/23 11:27:07;;;;;;;3.70;2.60;;;;;;;17.34;21.39;100727.25;5050938;28;20377;-50
2022/03/23 11:29:33;;;;;;;5.28;2.70;;;;;;;17.30;20.68;100723.34;5051222;28;20095;-49
2022/03/23 11:32:07;;;;;;;6.85;2.50;;;;;;;18.22;19.36;100727.81;5050746;28;20024;-49
2022/03/23 11:34:34;;;;;;;3.85;2.50;;;;;;;17.76;19.57;100716.59;5050779;28;20347;-48
2022/03/23 11:37:01;;;;;;;9.57;2.80;;;;;;;17.46;20.71;100715.72;5050849;28;20476;-51
2022/03/23 11:39:27;;;;;;;9.27;2.97;;;;;;;17.71;20.68;100712.94;5050965;28;20040;-48
2022/03/23 11:41:53;;;;;;;4.45;2.40;;;;;;;18.49;20.09;100703.13;5050564;28;20024;-53
2022/03/23 11:44:22;;;;;;;8.30;2.50;;;;;;;17.95;20.17;100706.66;5050325;28;20071;-49
2022/03/23 11:46:50;;;;;;;12.37;3.13;;;;;;;17.27;20.69;100701.44;5050399;28;20017;-49
2022/03/23 11:49:29;;;;;;;7.45;3.25;;;;;;;18.30;20.22;100689.75;5050843;28;20339;-49